sensor_id;sensor_type;location;lat;lon;timestamp;P1;P2;P0
62778;PMS7003;48821;48.796;2.396;2023-01-29T00:00:35;51.60;38.40;23.80
62778;PMS7003;48821;48.796;2.396;2023-01-29T00:01:47;41.67;35.00;20.33
62778;PMS7003;48821;48.796;2.396;2023-01-29T00:02:59;47.60;36.60;20.40
62778;PMS7003;48821;48.796;2.396;2023-01-29T00:04:11;47.33;39.67;22.67
62778;PMS7003;48821;48.796;2.396;2023-01-29T00:05:23;49.40;39.80;22.80
62778;PMS7003;48821;48.796;2.396;2023-01-29T00:06:35;50.80;39.40;22.40
62778;PMS7003;48821;48.796;2.396;2023-01-29T00:07:48;56.00;40.50;24.00
62778;PMS7003;48821;48.796;2.396;2023-01-29T00:09:00;46.33;38.00;23.00
62778;PMS7003;48821;48.796;2.396;2023-01-29T00:10:12;49.67;36.67;25.00
62778;PMS7003;48821;48.796;2.396;2023-01-29T00:11:24;52.80;40.40;24.40
62778;PMS7003;48821;48.796;2.396;2023-01-29T00:12:36;50.33;40.00;24.00
62778;PMS7003;48821;48.796;2.396;2023-01-29T00:13:48;55.00;37.67;23.00
62778;PMS7003;48821;48.796;2.396;2023-01-29T00:15:00;52.67;39.67;25.00
62778;PMS7003;48821;48.796;2.396;2023-01-29T00:16:12;50.80;38.80;24.40
62778;PMS7003;48821;48.796;2.396;2023-01-29T00:17:24;52.00;40.00;25.00
62778;PMS7003;48821;48.796;2.396;2023-01-29T00:18:37;48.00;37.80;23.40
62778;PMS7003;48821;48.796;2.396;2023-01-29T00:19:48;51.00;38.50;23.50
62778;PMS7003;48821;48.796;2.396;2023-01-29T00:21:00;53.67;40.33;24.00
62778;PMS7003;48821;48.796;2.396;2023-01-29T00:22:12;46.67;38.00;24.33
62778;PMS7003;48821;48.796;2.396;2023-01-29T00:23:25;51.20;40.40;24.40
62778;PMS7003;48821;48.796;2.396;2023-01-29T00:24:35;54.00;40.00;25.00
62778;PMS7003;48821;48.796;2.396;2023-01-29T00:25:47;54.67;41.33;23.67
62778;PMS7003;48821;48.796;2.396;2023-01-29T00:26:59;55.33;42.00;27.67
62778;PMS7003;48821;48.796;2.396;2023-01-29T00:28:11;51.80;40.80;23.60
62778;PMS7003;48821;48.796;2.396;2023-01-29T00:29:23;53.00;42.00;25.00
62778;PMS7003;48821;48.796;2.396;2023-01-29T00:30:36;52.00;41.00;23.33
62778;PMS7003;48821;48.796;2.396;2023-01-29T00:31:47;60.33;45.67;27.67
62778;PMS7003;48821;48.796;2.396;2023-01-29T00:32:59;64.00;48.00;29.33
62778;PMS7003;48821;48.796;2.396;2023-01-29T00:34:11;68.33;51.00;29.67
62778;PMS7003;48821;48.796;2.396;2023-01-29T00:35:23;59.67;46.33;28.00
62778;PMS7003;48821;48.796;2.396;2023-01-29T00:36:35;58.33;45.67;25.67
62778;PMS7003;48821;48.796;2.396;2023-01-29T00:37:47;62.00;46.67;29.33
62778;PMS7003;48821;48.796;2.396;2023-01-29T00:38:59;67.33;50.00;29.67
62778;PMS7003;48821;48.796;2.396;2023-01-29T00:40:20;66.33;48.67;29.33
62778;PMS7003;48821;48.796;2.396;2023-01-29T00:41:33;60.67;46.67;28.00
62778;PMS7003;48821;48.796;2.396;2023-01-29T00:43:03;62.00;45.00;24.67
62778;PMS7003;48821;48.796;2.396;2023-01-29T00:44:33;67.00;46.00;28.00
62778;PMS7003;48821;48.796;2.396;2023-01-29T00:46:03;59.33;40.33;27.00
62778;PMS7003;48821;48.796;2.396;2023-01-29T00:47:15;58.50;45.00;26.00
62778;PMS7003;48821;48.796;2.396;2023-01-29T00:48:43;53.00;41.00;26.00
62778;PMS7003;48821;48.796;2.396;2023-01-29T00:49:57;53.00;41.00;26.00
62778;PMS7003;48821;48.796;2.396;2023-01-29T00:51:08;58.33;39.33;22.00
62778;PMS7003;48821;48.796;2.396;2023-01-29T00:52:20;53.33;43.00;25.67
62778;PMS7003;48821;48.796;2.396;2023-01-29T00:53:34;54.00;40.00;23.00
62778;PMS7003;48821;48.796;2.396;2023-01-29T00:54:46;53.20;37.40;23.00
62778;PMS7003;48821;48.796;2.396;2023-01-29T00:55:58;54.00;38.00;23.00
62778;PMS7003;48821;48.796;2.396;2023-01-29T00:57:10;52.00;37.33;23.00
62778;PMS7003;48821;48.796;2.396;2023-01-29T00:58:22;53.00;38.00;22.20
62778;PMS7003;48821;48.796;2.396;2023-01-29T00:59:37;56.00;41.00;24.50
62778;PMS7003;48821;48.796;2.396;2023-01-29T01:00:49;54.67;39.00;23.00
62778;PMS7003;48821;48.796;2.396;2023-01-29T01:02:00;58.00;39.00;23.00
62778;PMS7003;48821;48.796;2.396;2023-01-29T01:03:29;48.50;36.00;20.50
62778;PMS7003;48821;48.796;2.396;2023-01-29T01:04:43;54.00;38.00;23.00
62778;PMS7003;48821;48.796;2.396;2023-01-29T01:06:02;47.00;35.00;22.67
62778;PMS7003;48821;48.796;2.396;2023-01-29T01:07:14;47.67;38.67;17.67
62778;PMS7003;48821;48.796;2.396;2023-01-29T01:08:26;45.00;37.20;22.60
62778;PMS7003;48821;48.796;2.396;2023-01-29T01:09:56;48.00;36.67;23.67
62778;PMS7003;48821;48.796;2.396;2023-01-29T01:11:26;44.00;35.00;18.67
62778;PMS7003;48821;48.796;2.396;2023-01-29T01:12:38;46.60;36.60;21.20
62778;PMS7003;48821;48.796;2.396;2023-01-29T01:13:50;42.00;33.33;20.00
62778;PMS7003;48821;48.796;2.396;2023-01-29T01:15:02;53.00;39.80;23.40
62778;PMS7003;48821;48.796;2.396;2023-01-29T01:16:15;55.00;39.33;23.00
62778;PMS7003;48821;48.796;2.396;2023-01-29T01:17:27;42.50;36.00;21.00
62778;PMS7003;48821;48.796;2.396;2023-01-29T01:18:39;52.67;39.00;22.67
62778;PMS7003;48821;48.796;2.396;2023-01-29T01:19:51;54.50;42.00;24.00
62778;PMS7003;48821;48.796;2.396;2023-01-29T01:21:03;40.00;38.20;22.80
62778;PMS7003;48821;48.796;2.396;2023-01-29T01:22:15;48.67;38.00;24.33
62778;PMS7003;48821;48.796;2.396;2023-01-29T01:23:26;50.00;38.00;25.00
62778;PMS7003;48821;48.796;2.396;2023-01-29T01:24:38;51.00;38.00;22.33
62778;PMS7003;48821;48.796;2.396;2023-01-29T01:25:50;49.00;38.20;23.40
62778;PMS7003;48821;48.796;2.396;2023-01-29T01:27:02;55.00;42.33;24.67
62778;PMS7003;48821;48.796;2.396;2023-01-29T01:28:14;53.20;39.20;21.80
62778;PMS7003;48821;48.796;2.396;2023-01-29T01:29:26;43.20;34.20;19.40
62778;PMS7003;48821;48.796;2.396;2023-01-29T01:30:37;46.00;38.00;20.33
62778;PMS7003;48821;48.796;2.396;2023-01-29T01:31:51;63.67;42.33;25.33
62778;PMS7003;48821;48.796;2.396;2023-01-29T01:33:03;56.00;37.00;18.50
62778;PMS7003;48821;48.796;2.396;2023-01-29T01:34:15;52.00;38.00;21.00
62778;PMS7003;48821;48.796;2.396;2023-01-29T01:35:27;52.60;40.40;24.40
62778;PMS7003;48821;48.796;2.396;2023-01-29T01:36:39;54.33;38.67;22.67
62778;PMS7003;48821;48.796;2.396;2023-01-29T01:37:50;52.00;38.67;23.67
62778;PMS7003;48821;48.796;2.396;2023-01-29T01:39:02;57.67;42.67;25.00
62778;PMS7003;48821;48.796;2.396;2023-01-29T01:40:16;52.20;39.00;24.40
62778;PMS7003;48821;48.796;2.396;2023-01-29T01:41:32;46.67;37.00;23.67
62778;PMS7003;48821;48.796;2.396;2023-01-29T01:42:51;49.33;38.00;22.67
62778;PMS7003;48821;48.796;2.396;2023-01-29T01:44:05;53.67;38.00;24.00
62778;PMS7003;48821;48.796;2.396;2023-01-29T01:45:25;54.00;40.00;25.00
62778;PMS7003;48821;48.796;2.396;2023-01-29T01:46:42;42.67;31.00;16.67
62778;PMS7003;48821;48.796;2.396;2023-01-29T01:47:58;49.40;34.60;19.20
62778;PMS7003;48821;48.796;2.396;2023-01-29T01:49:27;53.00;38.67;20.67
62778;PMS7003;48821;48.796;2.396;2023-01-29T01:50:41;50.33;40.33;23.67
62778;PMS7003;48821;48.796;2.396;2023-01-29T01:51:55;49.50;38.00;24.00
62778;PMS7003;48821;48.796;2.396;2023-01-29T01:53:08;52.60;35.80;23.00
62778;PMS7003;48821;48.796;2.396;2023-01-29T01:54:23;49.00;38.00;21.67
62778;PMS7003;48821;48.796;2.396;2023-01-29T01:55:47;47.67;38.00;23.33
62778;PMS7003;48821;48.796;2.396;2023-01-29T01:57:05;42.67;36.33;21.00
62778;PMS7003;48821;48.796;2.396;2023-01-29T01:58:47;55.00;41.00;24.00
62778;PMS7003;48821;48.796;2.396;2023-01-29T02:00:05;54.00;40.00;25.00
62778;PMS7003;48821;48.796;2.396;2023-01-29T02:01:22;45.50;38.00;24.00
62778;PMS7003;48821;48.796;2.396;2023-01-29T02:02:43;54.67;41.00;24.33
62778;PMS7003;48821;48.796;2.396;2023-01-29T02:04:15;50.00;36.50;22.00
62778;PMS7003;48821;48.796;2.396;2023-01-29T02:05:49;43.00;36.00;22.67
62778;PMS7003;48821;48.796;2.396;2023-01-29T02:07:22;54.67;40.67;23.33
62778;PMS7003;48821;48.796;2.396;2023-01-29T02:08:55;57.00;39.00;20.50
62778;PMS7003;48821;48.796;2.396;2023-01-29T02:10:34;48.00;38.67;23.00
62778;PMS7003;48821;48.796;2.396;2023-01-29T02:11:51;53.00;40.50;24.50
62778;PMS7003;48821;48.796;2.396;2023-01-29T02:13:04;56.00;39.40;24.00
62778;PMS7003;48821;48.796;2.396;2023-01-29T02:14:17;50.00;38.67;23.00
62778;PMS7003;48821;48.796;2.396;2023-01-29T02:15:29;48.00;39.60;24.00
62778;PMS7003;48821;48.796;2.396;2023-01-29T02:16:41;57.00;42.67;26.00
62778;PMS7003;48821;48.796;2.396;2023-01-29T02:17:53;54.20;42.60;24.60
62778;PMS7003;48821;48.796;2.396;2023-01-29T02:19:06;51.20;41.80;24.00
62778;PMS7003;48821;48.796;2.396;2023-01-29T02:20:28;49.67;38.00;19.67
62778;PMS7003;48821;48.796;2.396;2023-01-29T02:27:06;57.00;40.00;26.00
62778;PMS7003;48821;48.796;2.396;2023-01-29T02:33:40;54.60;40.40;24.00
62778;PMS7003;48821;48.796;2.396;2023-01-29T02:35:17;54.50;42.00;22.00
62778;PMS7003;48821;48.796;2.396;2023-01-29T02:36:46;45.33;37.33;20.67
62778;PMS7003;48821;48.796;2.396;2023-01-29T02:39:46;45.00;35.00;22.00
62778;PMS7003;48821;48.796;2.396;2023-01-29T02:41:11;48.00;39.00;23.50
62778;PMS7003;48821;48.796;2.396;2023-01-29T02:42:27;55.00;40.67;24.00
62778;PMS7003;48821;48.796;2.396;2023-01-29T02:43:51;39.00;37.50;18.00
62778;PMS7003;48821;48.796;2.396;2023-01-29T02:45:10;54.00;40.50;24.00
62778;PMS7003;48821;48.796;2.396;2023-01-29T02:46:30;52.00;40.50;24.00
62778;PMS7003;48821;48.796;2.396;2023-01-29T02:47:59;56.67;40.67;23.00
62778;PMS7003;48821;48.796;2.396;2023-01-29T02:49:16;55.00;39.33;23.67
62778;PMS7003;48821;48.796;2.396;2023-01-29T02:53:34;51.67;39.33;22.00
62778;PMS7003;48821;48.796;2.396;2023-01-29T02:54:53;48.33;37.67;23.00
62778;PMS7003;48821;48.796;2.396;2023-01-29T02:56:16;58.67;41.33;25.67
62778;PMS7003;48821;48.796;2.396;2023-01-29T02:57:35;57.33;39.67;22.33
62778;PMS7003;48821;48.796;2.396;2023-01-29T02:58:56;47.33;38.67;21.33
62778;PMS7003;48821;48.796;2.396;2023-01-29T03:01:35;55.50;41.50;25.00
62778;PMS7003;48821;48.796;2.396;2023-01-29T03:03:01;50.33;37.33;23.00
62778;PMS7003;48821;48.796;2.396;2023-01-29T03:06:32;55.00;39.67;24.33
62778;PMS7003;48821;48.796;2.396;2023-01-29T03:07:49;55.00;44.00;27.00
62778;PMS7003;48821;48.796;2.396;2023-01-29T03:09:08;52.00;40.00;24.00
62778;PMS7003;48821;48.796;2.396;2023-01-29T03:10:38;50.40;40.00;24.20
62778;PMS7003;48821;48.796;2.396;2023-01-29T03:11:57;47.67;39.00;24.00
62778;PMS7003;48821;48.796;2.396;2023-01-29T03:18:04;55.33;40.33;25.00
62778;PMS7003;48821;48.796;2.396;2023-01-29T03:19:39;58.00;40.50;25.50
62778;PMS7003;48821;48.796;2.396;2023-01-29T03:20:58;58.33;40.67;23.00
62778;PMS7003;48821;48.796;2.396;2023-01-29T03:22:43;58.00;41.00;25.00
62778;PMS7003;48821;48.796;2.396;2023-01-29T03:24:07;52.33;41.33;27.00
62778;PMS7003;48821;48.796;2.396;2023-01-29T03:25:49;55.00;41.00;25.00
62778;PMS7003;48821;48.796;2.396;2023-01-29T03:27:32;56.00;42.00;24.67
62778;PMS7003;48821;48.796;2.396;2023-01-29T03:29:11;54.67;43.00;26.00
62778;PMS7003;48821;48.796;2.396;2023-01-29T03:31:12;63.33;41.33;25.00
62778;PMS7003;48821;48.796;2.396;2023-01-29T03:32:58;57.67;46.33;27.00
62778;PMS7003;48821;48.796;2.396;2023-01-29T03:34:19;55.00;38.33;25.00
62778;PMS7003;48821;48.796;2.396;2023-01-29T03:36:07;60.00;43.50;25.50
62778;PMS7003;48821;48.796;2.396;2023-01-29T03:38:03;49.33;38.67;24.00
62778;PMS7003;48821;48.796;2.396;2023-01-29T03:39:45;55.00;43.50;25.00
62778;PMS7003;48821;48.796;2.396;2023-01-29T10:10:47;66.33;50.00;29.00
62778;PMS7003;48821;48.796;2.396;2023-01-29T10:25:13;64.67;50.33;32.00
62778;PMS7003;48821;48.796;2.396;2023-01-29T10:26:28;74.00;53.67;33.00
62778;PMS7003;48821;48.796;2.396;2023-01-29T10:27:52;67.67;49.00;30.33
62778;PMS7003;48821;48.796;2.396;2023-01-29T10:29:28;69.33;52.67;31.33
62778;PMS7003;48821;48.796;2.396;2023-01-29T10:31:36;68.33;50.00;30.33
62778;PMS7003;48821;48.796;2.396;2023-01-29T10:32:30;64.00;50.33;31.33
62778;PMS7003;48821;48.796;2.396;2023-01-29T10:34:12;68.00;51.00;30.67
62778;PMS7003;48821;48.796;2.396;2023-01-29T10:37:20;72.33;53.67;33.00
62778;PMS7003;48821;48.796;2.396;2023-01-29T10:38:53;68.00;52.67;32.00
62778;PMS7003;48821;48.796;2.396;2023-01-29T10:43:28;67.67;51.33;32.00
62778;PMS7003;48821;48.796;2.396;2023-01-29T10:48:54;66.33;51.33;31.33
62778;PMS7003;48821;48.796;2.396;2023-01-29T10:50:35;61.33;46.00;27.00
62778;PMS7003;48821;48.796;2.396;2023-01-29T10:52:09;62.67;45.67;26.00
62778;PMS7003;48821;48.796;2.396;2023-01-29T10:53:41;63.33;47.67;29.67
62778;PMS7003;48821;48.796;2.396;2023-01-29T10:55:24;64.67;50.33;32.33
62778;PMS7003;48821;48.796;2.396;2023-01-29T10:56:55;65.33;51.00;32.67
62778;PMS7003;48821;48.796;2.396;2023-01-29T11:01:26;66.00;51.67;31.67
62778;PMS7003;48821;48.796;2.396;2023-01-29T11:02:42;58.33;46.00;29.67
62778;PMS7003;48821;48.796;2.396;2023-01-29T11:03:56;65.33;49.67;30.00
62778;PMS7003;48821;48.796;2.396;2023-01-29T11:05:16;67.67;49.67;32.00
62778;PMS7003;48821;48.796;2.396;2023-01-29T11:06:34;65.67;50.67;31.00
62778;PMS7003;48821;48.796;2.396;2023-01-29T11:07:46;65.00;48.00;31.67
62778;PMS7003;48821;48.796;2.396;2023-01-29T11:10:40;70.33;50.33;30.33
62778;PMS7003;48821;48.796;2.396;2023-01-29T11:12:03;67.00;54.00;32.67
62778;PMS7003;48821;48.796;2.396;2023-01-29T11:13:23;62.33;47.00;30.67
62778;PMS7003;48821;48.796;2.396;2023-01-29T11:15:58;66.00;51.33;31.67
62778;PMS7003;48821;48.796;2.396;2023-01-29T11:17:17;68.00;50.00;31.67
62778;PMS7003;48821;48.796;2.396;2023-01-29T11:18:47;69.00;50.33;31.67
62778;PMS7003;48821;48.796;2.396;2023-01-29T11:20:05;63.33;49.67;31.00
62778;PMS7003;48821;48.796;2.396;2023-01-29T11:25:35;67.67;51.00;32.67
62778;PMS7003;48821;48.796;2.396;2023-01-29T11:26:32;61.67;49.33;32.00
62778;PMS7003;48821;48.796;2.396;2023-01-29T11:27:48;69.67;51.00;32.00
62778;PMS7003;48821;48.796;2.396;2023-01-29T11:29:03;69.00;52.33;33.67
62778;PMS7003;48821;48.796;2.396;2023-01-29T11:30:18;61.67;49.00;30.67
62778;PMS7003;48821;48.796;2.396;2023-01-29T11:31:37;64.00;50.33;31.67
62778;PMS7003;48821;48.796;2.396;2023-01-29T11:32:56;62.33;48.33;30.67
62778;PMS7003;48821;48.796;2.396;2023-01-29T11:34:29;60.00;46.00;29.00
62778;PMS7003;48821;48.796;2.396;2023-01-29T11:35:43;61.00;47.67;30.33
62778;PMS7003;48821;48.796;2.396;2023-01-29T11:37:00;61.67;46.67;29.67
62778;PMS7003;48821;48.796;2.396;2023-01-29T11:38:26;62.00;48.00;29.67
62778;PMS7003;48821;48.796;2.396;2023-01-29T11:39:42;62.67;46.67;27.67
62778;PMS7003;48821;48.796;2.396;2023-01-29T11:41:05;42.33;32.67;17.00
62778;PMS7003;48821;48.796;2.396;2023-01-29T11:42:29;56.00;45.33;29.67
62778;PMS7003;48821;48.796;2.396;2023-01-29T11:43:43;56.67;44.67;29.67
62778;PMS7003;48821;48.796;2.396;2023-01-29T11:44:55;55.33;44.33;28.33
62778;PMS7003;48821;48.796;2.396;2023-01-29T11:46:10;61.00;47.33;28.67
62778;PMS7003;48821;48.796;2.396;2023-01-29T11:47:28;57.00;45.67;29.00
62778;PMS7003;48821;48.796;2.396;2023-01-29T11:48:44;61.67;45.67;29.33
62778;PMS7003;48821;48.796;2.396;2023-01-29T11:50:00;58.00;43.00;26.33
62778;PMS7003;48821;48.796;2.396;2023-01-29T11:51:26;57.50;44.00;29.00
62778;PMS7003;48821;48.796;2.396;2023-01-29T11:52:44;64.67;46.67;29.00
62778;PMS7003;48821;48.796;2.396;2023-01-29T11:54:00;60.00;47.00;29.33
62778;PMS7003;48821;48.796;2.396;2023-01-29T11:55:14;58.00;44.50;29.00
62778;PMS7003;48821;48.796;2.396;2023-01-29T11:56:37;59.33;47.00;28.00
62778;PMS7003;48821;48.796;2.396;2023-01-29T11:57:56;55.00;41.00;26.33
62778;PMS7003;48821;48.796;2.396;2023-01-29T11:59:49;56.00;42.67;26.00
62778;PMS7003;48821;48.796;2.396;2023-01-29T12:00:59;59.00;47.33;27.67
62778;PMS7003;48821;48.796;2.396;2023-01-29T12:03:42;56.00;43.00;27.00
62778;PMS7003;48821;48.796;2.396;2023-01-29T12:05:27;58.50;45.00;28.00
62778;PMS7003;48821;48.796;2.396;2023-01-29T12:06:40;57.00;44.00;27.33
62778;PMS7003;48821;48.796;2.396;2023-01-29T12:07:55;61.33;46.00;30.00
62778;PMS7003;48821;48.796;2.396;2023-01-29T12:09:12;57.00;45.00;28.00
62778;PMS7003;48821;48.796;2.396;2023-01-29T12:10:33;55.67;40.00;27.00
62778;PMS7003;48821;48.796;2.396;2023-01-29T12:11:49;50.33;39.67;25.00
62778;PMS7003;48821;48.796;2.396;2023-01-29T12:14:25;50.67;42.00;26.33
62778;PMS7003;48821;48.796;2.396;2023-01-29T12:15:43;54.33;39.67;25.00
62778;PMS7003;48821;48.796;2.396;2023-01-29T12:17:00;59.00;46.00;28.33
62778;PMS7003;48821;48.796;2.396;2023-01-29T12:23:49;55.33;44.00;29.00
62778;PMS7003;48821;48.796;2.396;2023-01-29T12:42:14;51.33;37.67;23.33
62778;PMS7003;48821;48.796;2.396;2023-01-29T12:45:45;39.50;34.00;19.00
62778;PMS7003;48821;48.796;2.396;2023-01-29T12:48:08;52.00;39.33;25.00
62778;PMS7003;48821;48.796;2.396;2023-01-29T12:51:25;25.00;21.00;16.33
62778;PMS7003;48821;48.796;2.396;2023-01-29T12:59:48;27.33;20.67;15.33
62778;PMS7003;48821;48.796;2.396;2023-01-29T13:15:27;21.00;18.00;12.50
62778;PMS7003;48821;48.796;2.396;2023-01-29T14:16:33;16.00;14.00;12.00
62778;PMS7003;48821;48.796;2.396;2023-01-29T14:21:34;17.00;16.50;12.00
62778;PMS7003;48821;48.796;2.396;2023-01-29T14:23:21;22.00;19.83;13.17
62778;PMS7003;48821;48.796;2.396;2023-01-29T14:27:21;18.67;15.50;11.67
62778;PMS7003;48821;48.796;2.396;2023-01-29T14:28:49;18.50;15.50;12.00
62778;PMS7003;48821;48.796;2.396;2023-01-29T14:30:18;20.17;17.50;13.17
62778;PMS7003;48821;48.796;2.396;2023-01-29T14:31:53;21.00;18.33;13.00
62778;PMS7003;48821;48.796;2.396;2023-01-29T14:33:23;15.17;13.50;10.17
62778;PMS7003;48821;48.796;2.396;2023-01-29T14:35:17;17.00;16.33;11.33
62778;PMS7003;48821;48.796;2.396;2023-01-29T14:36:53;16.00;15.00;11.00
62778;PMS7003;48821;48.796;2.396;2023-01-29T14:40:49;16.00;15.00;11.00
62778;PMS7003;48821;48.796;2.396;2023-01-29T14:43:07;18.50;13.50;10.00
62778;PMS7003;48821;48.796;2.396;2023-01-29T14:51:09;20.83;19.50;13.50
62778;PMS7003;48821;48.796;2.396;2023-01-29T14:53:22;21.33;18.33;12.67
62778;PMS7003;48821;48.796;2.396;2023-01-29T14:54:58;20.50;16.67;13.67
62778;PMS7003;48821;48.796;2.396;2023-01-29T14:57:53;22.67;20.33;14.33
62778;PMS7003;48821;48.796;2.396;2023-01-29T14:59:20;18.83;16.00;13.83
62778;PMS7003;48821;48.796;2.396;2023-01-29T15:00:45;14.00;12.50;9.00
62778;PMS7003;48821;48.796;2.396;2023-01-29T15:03:43;21.00;17.50;13.50
62778;PMS7003;48821;48.796;2.396;2023-01-29T15:05:27;21.50;20.50;14.50
62778;PMS7003;48821;48.796;2.396;2023-01-29T15:06:44;14.67;13.00;8.67
62778;PMS7003;48821;48.796;2.396;2023-01-29T15:08:26;19.17;15.00;12.00
62778;PMS7003;48821;48.796;2.396;2023-01-29T15:09:52;15.17;14.00;11.00
62778;PMS7003;48821;48.796;2.396;2023-01-29T15:11:36;16.50;16.50;12.00
62778;PMS7003;48821;48.796;2.396;2023-01-29T15:13:00;14.00;14.00;12.00
62778;PMS7003;48821;48.796;2.396;2023-01-29T15:14:27;22.00;19.00;13.00
62778;PMS7003;48821;48.796;2.396;2023-01-29T15:15:43;21.00;15.00;12.00
62778;PMS7003;48821;48.796;2.396;2023-01-29T15:18:39;18.00;15.00;12.00
62778;PMS7003;48821;48.796;2.396;2023-01-29T15:19:52;19.50;15.00;11.00
62778;PMS7003;48821;48.796;2.396;2023-01-29T15:21:10;17.17;16.17;12.67
62778;PMS7003;48821;48.796;2.396;2023-01-29T15:22:40;15.83;15.83;12.00
62778;PMS7003;48821;48.796;2.396;2023-01-29T15:24:06;16.50;15.00;12.00
62778;PMS7003;48821;48.796;2.396;2023-01-29T15:25:48;24.67;22.33;15.00
62778;PMS7003;48821;48.796;2.396;2023-01-29T15:27:30;18.17;15.50;12.00
62778;PMS7003;48821;48.796;2.396;2023-01-29T15:28:53;17.33;15.67;11.17
62778;PMS7003;48821;48.796;2.396;2023-01-29T15:30:11;20.00;17.00;13.00
62778;PMS7003;48821;48.796;2.396;2023-01-29T15:31:38;17.50;16.50;13.00
62778;PMS7003;48821;48.796;2.396;2023-01-29T15:33:00;20.33;18.00;14.00
62778;PMS7003;48821;48.796;2.396;2023-01-29T15:34:30;24.00;20.50;14.00
62778;PMS7003;48821;48.796;2.396;2023-01-29T15:35:59;16.33;15.00;10.67
62778;PMS7003;48821;48.796;2.396;2023-01-29T15:37:27;22.33;18.33;13.50
62778;PMS7003;48821;48.796;2.396;2023-01-29T15:38:46;23.67;19.00;14.00
62778;PMS7003;48821;48.796;2.396;2023-01-29T15:40:23;20.33;16.00;11.33
62778;PMS7003;48821;48.796;2.396;2023-01-29T15:41:53;19.67;18.00;13.33
62778;PMS7003;48821;48.796;2.396;2023-01-29T15:43:27;23.33;19.33;14.00
62778;PMS7003;48821;48.796;2.396;2023-01-29T15:44:43;22.33;17.67;13.00
62778;PMS7003;48821;48.796;2.396;2023-01-29T15:47:26;15.50;15.50;13.00
62778;PMS7003;48821;48.796;2.396;2023-01-29T15:48:42;21.00;17.00;13.00
62778;PMS7003;48821;48.796;2.396;2023-01-29T15:50:12;18.33;18.33;13.00
62778;PMS7003;48821;48.796;2.396;2023-01-29T15:51:24;26.00;19.67;14.67
62778;PMS7003;48821;48.796;2.396;2023-01-29T15:52:40;21.00;18.50;14.00
62778;PMS7003;48821;48.796;2.396;2023-01-29T15:53:54;23.67;19.33;16.00
62778;PMS7003;48821;48.796;2.396;2023-01-29T15:55:17;22.67;19.00;14.00
62778;PMS7003;48821;48.796;2.396;2023-01-29T15:56:34;23.00;18.67;13.33
62778;PMS7003;48821;48.796;2.396;2023-01-29T15:57:56;23.67;18.67;15.67
62778;PMS7003;48821;48.796;2.396;2023-01-29T15:59:07;20.00;18.00;14.00
62778;PMS7003;48821;48.796;2.396;2023-01-29T16:00:31;20.67;19.00;14.00
62778;PMS7003;48821;48.796;2.396;2023-01-29T16:01:44;19.50;17.50;13.83
62778;PMS7003;48821;48.796;2.396;2023-01-29T16:02:55;16.50;14.50;9.50
62778;PMS7003;48821;48.796;2.396;2023-01-29T16:04:10;20.00;18.33;14.00
62778;PMS7003;48821;48.796;2.396;2023-01-29T16:05:29;22.67;18.00;14.50
62778;PMS7003;48821;48.796;2.396;2023-01-29T16:06:44;22.00;19.00;13.00
62778;PMS7003;48821;48.796;2.396;2023-01-29T16:08:00;21.33;19.00;14.67
62778;PMS7003;48821;48.796;2.396;2023-01-29T16:09:25;18.50;17.50;14.00
62778;PMS7003;48821;48.796;2.396;2023-01-29T16:10:41;26.00;19.67;14.33
62778;PMS7003;48821;48.796;2.396;2023-01-29T16:12:02;20.33;18.33;14.33
62778;PMS7003;48821;48.796;2.396;2023-01-29T16:13:20;19.50;18.50;15.00
62778;PMS7003;48821;48.796;2.396;2023-01-29T16:14:35;22.00;20.00;14.20
62778;PMS7003;48821;48.796;2.396;2023-01-29T16:15:54;25.67;22.00;14.67
62778;PMS7003;48821;48.796;2.396;2023-01-29T16:17:29;26.00;20.00;16.67
62778;PMS7003;48821;48.796;2.396;2023-01-29T16:19:12;19.67;19.00;13.33
62778;PMS7003;48821;48.796;2.396;2023-01-29T16:20:39;28.00;23.00;17.00
62778;PMS7003;48821;48.796;2.396;2023-01-29T16:22:14;23.33;21.00;16.00
62778;PMS7003;48821;48.796;2.396;2023-01-29T16:23:28;23.00;21.00;16.67
62778;PMS7003;48821;48.796;2.396;2023-01-29T16:24:45;26.67;20.00;15.00
62778;PMS7003;48821;48.796;2.396;2023-01-29T16:26:06;23.67;23.33;16.00
62778;PMS7003;48821;48.796;2.396;2023-01-29T16:27:22;27.00;22.33;16.67
62778;PMS7003;48821;48.796;2.396;2023-01-29T16:28:42;21.33;20.00;16.33
62778;PMS7003;48821;48.796;2.396;2023-01-29T16:29:55;24.33;24.33;16.33
62778;PMS7003;48821;48.796;2.396;2023-01-29T16:31:07;19.00;19.00;15.00
62778;PMS7003;48821;48.796;2.396;2023-01-29T16:32:25;24.33;20.00;16.00
62778;PMS7003;48821;48.796;2.396;2023-01-29T16:33:38;26.67;20.33;14.67
62778;PMS7003;48821;48.796;2.396;2023-01-29T16:35:01;23.67;19.33;15.33
62778;PMS7003;48821;48.796;2.396;2023-01-29T16:36:19;27.00;23.67;15.33
62778;PMS7003;48821;48.796;2.396;2023-01-29T16:37:33;21.67;19.00;13.67
62778;PMS7003;48821;48.796;2.396;2023-01-29T16:38:47;24.00;21.33;16.67
62778;PMS7003;48821;48.796;2.396;2023-01-29T16:40:14;27.50;23.00;16.00
62778;PMS7003;48821;48.796;2.396;2023-01-29T16:41:35;24.33;17.33;13.00
62778;PMS7003;48821;48.796;2.396;2023-01-29T16:42:48;23.33;19.33;15.67
62778;PMS7003;48821;48.796;2.396;2023-01-29T16:45:30;21.67;21.67;15.67
62778;PMS7003;48821;48.796;2.396;2023-01-29T16:46:46;26.00;22.67;15.00
62778;PMS7003;48821;48.796;2.396;2023-01-29T16:48:19;23.00;21.00;15.00
62778;PMS7003;48821;48.796;2.396;2023-01-29T16:50:49;24.00;21.33;15.33
62778;PMS7003;48821;48.796;2.396;2023-01-29T16:52:53;27.00;24.60;17.20
62778;PMS7003;48821;48.796;2.396;2023-01-29T16:53:37;22.33;21.33;16.33
62778;PMS7003;48821;48.796;2.396;2023-01-29T16:54:49;25.00;24.00;17.67
62778;PMS7003;48821;48.796;2.396;2023-01-29T16:56:03;25.00;24.00;17.00
62778;PMS7003;48821;48.796;2.396;2023-01-29T16:57:18;23.67;22.00;17.00
62778;PMS7003;48821;48.796;2.396;2023-01-29T16:58:33;27.50;25.00;18.50
62778;PMS7003;48821;48.796;2.396;2023-01-29T16:59:45;25.00;23.00;16.00
62778;PMS7003;48821;48.796;2.396;2023-01-29T17:01:00;22.00;22.00;17.00
62778;PMS7003;48821;48.796;2.396;2023-01-29T17:02:26;26.00;25.00;17.67
62778;PMS7003;48821;48.796;2.396;2023-01-29T17:03:43;28.00;27.67;18.00
62778;PMS7003;48821;48.796;2.396;2023-01-29T17:05:03;29.33;26.67;19.00
62778;PMS7003;48821;48.796;2.396;2023-01-29T17:06:20;26.00;24.50;16.00
62778;PMS7003;48821;48.796;2.396;2023-01-29T17:07:36;25.67;25.00;17.67
62778;PMS7003;48821;48.796;2.396;2023-01-29T17:08:48;33.33;28.67;20.00
62778;PMS7003;48821;48.796;2.396;2023-01-29T17:10:00;25.50;24.00;18.00
62778;PMS7003;48821;48.796;2.396;2023-01-29T17:11:22;34.33;27.00;18.67
62778;PMS7003;48821;48.796;2.396;2023-01-29T17:12:37;32.67;26.67;19.33
62778;PMS7003;48821;48.796;2.396;2023-01-29T17:13:49;23.67;21.67;17.00
62778;PMS7003;48821;48.796;2.396;2023-01-29T17:15:03;33.00;27.00;19.60